createdAt,value
2024-02-13T00:03:49.608Z,28.88
2024-02-13T00:08:50.986Z,28.87
2024-02-13T00:13:52.742Z,28.89
2024-02-13T00:18:54.101Z,28.98
2024-02-13T00:23:56.478Z,28.84
2024-02-13T00:28:57.840Z,28.88
2024-02-13T00:33:59.193Z,29.07
2024-02-13T00:39:01.903Z,28.93
2024-02-13T00:44:03.296Z,28.84
2024-02-13T00:49:05.145Z,28.71
2024-02-13T00:54:07.056Z,28.89
2024-02-13T00:59:08.781Z,28.71
2024-02-13T01:04:10.181Z,28.37
2024-02-13T01:09:11.535Z,28.47
2024-02-13T01:14:12.882Z,28.45
2024-02-13T01:19:14.491Z,28.37
2024-02-13T01:24:16.190Z,28.55
2024-02-13T01:29:17.598Z,28.47
2024-02-13T01:34:19.629Z,28.43
2024-02-13T01:39:23.402Z,28.36
2024-02-13T01:44:25.400Z,28.27
2024-02-13T01:49:29.319Z,28.33
2024-02-13T01:54:31.291Z,28.24
2024-02-13T01:59:33.128Z,28.34
2024-02-13T02:04:34.503Z,28.30
2024-02-13T02:09:35.997Z,28.08
2024-02-13T02:14:39.599Z,27.75
2024-02-13T02:19:40.978Z,27.73
2024-02-13T02:24:42.305Z,27.90
2024-02-13T02:29:43.659Z,27.90
2024-02-13T02:34:44.994Z,27.87
2024-02-13T02:39:46.298Z,27.82
2024-02-13T02:44:47.644Z,27.69
2024-02-13T02:49:48.972Z,27.80
2024-02-13T02:54:50.271Z,27.76
2024-02-13T02:59:51.623Z,27.90
2024-02-13T03:04:53.694Z,28.17
2024-02-13T03:09:54.988Z,28.02
2024-02-13T03:14:57.058Z,27.76
2024-02-13T03:19:58.524Z,27.56
2024-02-13T03:25:02.735Z,27.35
2024-02-13T03:30:05.971Z,27.27
2024-02-13T03:35:07.499Z,27.61
2024-02-13T03:40:09.688Z,27.32
2024-02-13T03:45:11.363Z,27.32
2024-02-13T03:50:13.155Z,27.17
2024-02-13T03:55:14.503Z,27.02
2024-02-13T04:00:16.077Z,27.10
2024-02-13T04:05:17.441Z,27.43
2024-02-13T04:10:18.889Z,27.44
2024-02-13T04:15:20.264Z,27.44
2024-02-13T04:20:21.682Z,27.45
2024-02-13T04:25:23.140Z,26.96
2024-02-13T04:30:24.430Z,26.96
2024-02-13T04:35:25.792Z,26.74
2024-02-13T04:40:27.131Z,27.02
2024-02-13T04:45:28.631Z,27.30
2024-02-13T04:50:29.976Z,27.39
2024-02-13T04:55:33.726Z,27.39
2024-02-13T05:00:38.191Z,27.43
2024-02-13T05:05:58.056Z,27.38
2024-02-13T05:10:59.434Z,27.31
2024-02-13T05:16:01.638Z,27.28
2024-02-13T05:21:04.245Z,27.21
2024-02-13T05:26:08.777Z,27.01
2024-02-13T05:31:10.078Z,26.99
2024-02-13T05:36:11.593Z,26.78
2024-02-13T05:41:13.212Z,26.70
2024-02-13T05:46:14.873Z,26.64
2024-02-13T05:51:16.457Z,26.52
2024-02-13T05:56:26.738Z,26.72
2024-02-13T06:01:32.850Z,26.48
2024-02-13T06:06:37.362Z,26.55
2024-02-13T06:11:38.765Z,26.44
2024-02-13T06:16:40.172Z,26.57
2024-02-13T06:21:41.599Z,26.51
2024-02-13T06:26:45.832Z,26.46
2024-02-13T06:31:47.154Z,26.43
2024-02-13T06:36:48.973Z,26.32
2024-02-13T06:41:50.433Z,26.07
2024-02-13T06:46:52.234Z,26.41
2024-02-13T06:51:53.525Z,26.43
2024-02-13T06:56:54.944Z,26.28
2024-02-13T07:01:56.302Z,26.15
2024-02-13T07:07:08.712Z,26.28
2024-02-13T07:12:21.070Z,25.94
2024-02-13T07:17:22.561Z,26.11
2024-02-13T07:22:23.955Z,26.06
2024-02-13T07:27:25.473Z,25.98
2024-02-13T07:32:26.938Z,25.84
2024-02-13T07:37:28.587Z,26.10
2024-02-13T07:42:30.173Z,26.02
2024-02-13T07:47:31.767Z,26.09
2024-02-13T07:52:33.909Z,25.73
2024-02-13T07:57:36.130Z,25.86
2024-02-13T08:02:37.605Z,25.81
2024-02-13T08:07:38.962Z,25.75
2024-02-13T08:12:40.386Z,25.72
2024-02-13T08:17:41.776Z,25.84
2024-02-13T08:22:43.130Z,25.39
2024-02-13T08:27:44.460Z,25.78
2024-02-13T08:32:46.730Z,25.57
2024-02-13T08:37:48.819Z,25.40
2024-02-13T08:42:50.175Z,25.09
2024-02-13T08:47:51.560Z,25.33
2024-02-13T08:52:53.221Z,25.14
2024-02-13T08:57:54.551Z,24.74
2024-02-13T09:02:56.020Z,24.77
2024-02-13T09:07:57.317Z,24.84
2024-02-13T09:12:58.705Z,24.28
2024-02-13T09:18:00.289Z,24.75
2024-02-13T09:23:01.709Z,24.61
2024-02-13T09:28:03.008Z,24.57
2024-02-13T09:33:05.078Z,24.39
2024-02-13T09:38:07.815Z,24.39
2024-02-13T09:43:09.625Z,24.47
2024-02-13T09:48:20.133Z,24.13
2024-02-13T09:53:28.027Z,24.49
2024-02-13T09:58:30.603Z,24.41
2024-02-13T10:03:32.076Z,24.19
2024-02-13T10:08:35.884Z,24.28
2024-02-13T10:13:45.215Z,23.78
2024-02-13T10:18:52.998Z,23.83
2024-02-13T10:24:13.634Z,23.79
2024-02-13T10:29:15.389Z,23.58
2024-02-13T10:34:16.699Z,23.58
2024-02-13T10:39:18.006Z,23.37
2024-02-13T10:44:22.954Z,23.16
2024-02-13T10:49:44.048Z,23.09
2024-02-13T10:54:47.193Z,23.14
2024-02-13T10:59:48.857Z,23.04
2024-02-13T11:04:50.667Z,22.67
2024-02-13T11:09:53.881Z,22.64
2024-02-13T11:14:55.181Z,22.61
2024-02-13T11:19:59.839Z,22.48
2024-02-13T11:25:07.056Z,22.79
2024-02-13T11:30:08.563Z,22.87
2024-02-13T11:35:11.892Z,22.77
2024-02-13T11:40:18.494Z,22.95
2024-02-13T11:45:20.871Z,22.94
2024-02-13T11:50:22.429Z,23.09
2024-02-13T11:55:24.114Z,23.57
2024-02-13T12:00:26.389Z,23.04
2024-02-13T12:05:29.468Z,23.04
2024-02-13T12:10:30.928Z,23.27
2024-02-13T12:15:32.231Z,23.03
2024-02-13T12:20:34.179Z,23.14
2024-02-13T12:25:36.647Z,23.11
2024-02-13T12:30:37.989Z,22.91
2024-02-13T12:35:45.759Z,23.19
2024-02-13T12:40:47.553Z,22.98
2024-02-13T12:45:48.848Z,22.63
2024-02-13T12:50:50.795Z,22.64
2024-02-13T12:55:53.771Z,22.58
2024-02-13T13:00:55.984Z,22.39
2024-02-13T13:05:58.248Z,22.24
2024-02-13T13:10:59.670Z,22.17
2024-02-13T13:16:01.041Z,22.35
2024-02-13T13:21:03.233Z,22.27
2024-02-13T13:26:09.849Z,22.17
2024-02-13T13:31:15.732Z,22.11
2024-02-13T13:36:18.038Z,21.86
2024-02-13T13:41:22.492Z,21.99
2024-02-13T13:46:25.395Z,21.88
2024-02-13T13:51:29.653Z,22.08
2024-02-13T13:56:31.896Z,21.83
2024-02-13T14:01:33.229Z,21.95
2024-02-13T14:06:34.629Z,21.58
2024-02-13T14:11:35.964Z,21.50
2024-02-13T14:16:37.288Z,21.65
2024-02-13T14:21:38.714Z,22.00
2024-02-13T14:26:40.076Z,21.99
2024-02-13T14:31:43.043Z,21.90
2024-02-13T14:36:46.003Z,21.98
2024-02-13T14:41:54.657Z,21.76
2024-02-13T14:46:59.223Z,21.70
2024-02-13T14:52:01.030Z,21.78
2024-02-13T14:57:02.441Z,21.87
2024-02-13T15:02:05.529Z,22.08
2024-02-13T15:07:06.917Z,22.12
2024-02-13T15:12:08.611Z,22.07
2024-02-13T15:17:11.769Z,22.26
2024-02-13T15:22:13.279Z,22.27
2024-02-13T15:27:14.603Z,22.49
2024-02-13T15:32:17.124Z,22.52
2024-02-13T15:37:36.921Z,22.68
2024-02-13T15:42:58.774Z,22.75
2024-02-13T15:48:00.540Z,22.63
2024-02-13T15:53:02.503Z,22.74
2024-02-13T15:58:04.445Z,22.56
2024-02-13T16:03:09.564Z,22.70
2024-02-13T16:08:11.708Z,22.84
2024-02-13T16:13:13.265Z,22.89
2024-02-13T16:18:14.943Z,23.04
2024-02-13T16:23:16.509Z,23.35
2024-02-13T16:28:18.145Z,23.65
2024-02-13T16:33:19.566Z,23.76
2024-02-13T16:38:20.928Z,23.99
2024-02-13T16:43:22.839Z,23.92
2024-02-13T16:48:24.346Z,23.90
2024-02-13T16:53:25.827Z,24.13
2024-02-13T16:58:27.186Z,23.80
2024-02-13T17:03:28.527Z,24.07
2024-02-13T17:08:30.193Z,24.38
2024-02-13T17:13:31.527Z,24.34
2024-02-13T17:18:32.977Z,24.36
2024-02-13T17:23:35.165Z,23.74
2024-02-13T17:28:39.946Z,23.84
2024-02-13T17:33:41.579Z,23.98
2024-02-13T17:38:43.668Z,23.92
2024-02-13T17:43:45.006Z,23.78
2024-02-13T17:48:49.373Z,23.66
2024-02-13T17:53:50.944Z,23.51
2024-02-13T17:58:52.392Z,23.60
2024-02-13T18:03:53.808Z,23.39
2024-02-13T18:08:55.453Z,23.46
2024-02-13T18:13:56.804Z,23.54
2024-02-13T18:18:58.361Z,23.31
2024-02-13T18:24:02.100Z,23.42
2024-02-13T18:29:03.765Z,23.29
2024-02-13T18:34:05.208Z,23.28
2024-02-13T18:39:06.672Z,23.18
2024-02-13T18:44:08.017Z,23.10
2024-02-13T18:49:11.107Z,23.14
2024-02-13T18:54:13.109Z,23.15
2024-02-13T18:59:14.640Z,23.15
2024-02-13T19:04:15.954Z,23.07
2024-02-13T19:09:17.263Z,23.17
2024-02-13T19:14:21.585Z,23.14
2024-02-13T19:19:23.007Z,23.00
2024-02-13T19:24:24.309Z,23.04
2024-02-13T19:29:25.637Z,22.98
2024-02-13T19:34:28.461Z,23.00
2024-02-13T19:39:30.353Z,22.81
2024-02-13T19:44:31.674Z,22.77
2024-02-13T19:49:33.063Z,22.73
2024-02-13T19:54:34.409Z,22.95
2024-02-13T19:59:35.764Z,22.91
2024-02-13T20:04:37.061Z,22.85
2024-02-13T20:09:38.344Z,22.80
2024-02-13T20:14:39.724Z,22.76
2024-02-13T20:19:41.097Z,22.83
2024-02-13T20:24:42.437Z,23.04
2024-02-13T20:29:44.893Z,22.79
2024-02-13T20:34:46.983Z,22.77
2024-02-13T20:39:48.323Z,22.87
2024-02-13T20:44:51.396Z,22.89
2024-02-13T20:49:52.762Z,22.71
2024-02-13T20:54:54.100Z,23.11
2024-02-13T20:59:55.451Z,23.00
2024-02-13T21:04:56.839Z,22.97
2024-02-13T21:09:58.166Z,22.64
2024-02-13T21:14:59.636Z,22.83
2024-02-13T21:20:01.437Z,22.69
2024-02-13T21:25:03.028Z,22.88
2024-02-13T21:30:05.322Z,23.01
2024-02-13T21:35:11.861Z,23.01
2024-02-13T21:40:14.834Z,22.91
2024-02-13T21:45:16.214Z,22.86
2024-02-13T21:50:18.965Z,22.89
2024-02-13T21:55:20.265Z,22.76
2024-02-13T22:00:22.948Z,22.90
2024-02-13T22:05:24.342Z,22.79
2024-02-13T22:10:25.682Z,22.75
2024-02-13T22:15:26.960Z,23.07
2024-02-13T22:20:30.081Z,22.92
2024-02-13T22:25:31.686Z,22.90
2024-02-13T22:30:32.985Z,22.76
2024-02-13T22:35:34.412Z,22.87
2024-02-13T22:40:35.733Z,22.70
2024-02-13T22:45:37.041Z,22.93
2024-02-13T22:50:38.372Z,22.79
2024-02-13T22:55:39.698Z,22.86
2024-02-13T23:00:50.839Z,22.53
2024-02-13T23:05:56.867Z,22.74
2024-02-13T23:10:58.234Z,23.06
2024-02-13T23:15:59.625Z,22.97
2024-02-13T23:21:01.523Z,22.91
2024-02-13T23:26:02.870Z,22.80
2024-02-13T23:31:05.717Z,22.82
2024-02-13T23:36:07.165Z,23.04
2024-02-13T23:41:08.578Z,23.06
2024-02-13T23:46:09.864Z,22.97
2024-02-13T23:51:11.286Z,23.04
2024-02-13T23:56:15.861Z,22.97
